Tropical Cyclones
[Index]
Main Index Home Page Stock Weather Photos Extreme Storms Discussion Storm News and Storm Chasing Reports Tropical Cyclones / Hurricanes / Typhoons Weather Data and Links Wild Fires / Bushfires Weather Observation Techniques Weather Picture Catalogue Tornado Pictures and Reports Stock Video Footage and DVDs for sale
Season 2016-2017 Tropical Cyclone ALFRED Track Map
Season 2016-2017 Summaries: [BoM-AU]
<<- Previous TC | BoM 2016-2017 Season | Next TC ->>

click for intensity scale information  Lat/long Grid: Show Hide

 Date Labels: Show Hide

Bureau of Meteorology Tropical Cyclone Data

Name: ALFRED
Number: 996 / 201617_19

15 Feb 2017 06:00 UTC to 22 Feb 2017 12:00 UTC

    date/time    lat    long    hPa   cat  kts
2017-02-15 06   16.7   137.0   1003                     
2017-02-15 12   16.4   136.1   1006                     
2017-02-15 18   15.9   138.0   1004                     
2017-02-16 00   15.5   139.2                25          
2017-02-16 06   16.1   139.6   1001         25          
2017-02-16 12   16.3   139.5    999         30          
2017-02-16 18   16.6   139.2    994    1    30          
2017-02-17 00   16.8   138.5    996         30          
2017-02-17 06   16.8   138.2    999         25          
2017-02-17 12   17.0   137.7   1002         25          
2017-02-17 18   16.9   136.7   1003         15          
2017-02-18 00   16.4   136.2   1003         15          
2017-02-18 06   15.9   136.2   1002         25          
2017-02-18 12   15.6   136.5   1004         25          
2017-02-18 18   15.5   136.6   1001         25          
2017-02-19 00   15.3   136.4   1002         25          
2017-02-19 06   15.0   136.3    999         35          
2017-02-19 12   14.6   136.9    999         35          
2017-02-19 18   15.0   137.1    999         35          
2017-02-20 00   15.4   137.2    997         40          
2017-02-20 06   15.7   137.3    994    1    45          
2017-02-20 12   15.7   137.5    998         35          
2017-02-20 18   15.5   137.8    999         30          
2017-02-21 00   16.0   138.0   1003         30          
2017-02-21 06   16.8   137.9   1004                     
2017-02-21 12   16.7   137.6                            
2017-02-21 18   16.3   137.7                            
2017-02-22 00   16.3   137.9                            
2017-02-22 06   16.8   138.4   1005                     
2017-02-22 12   17.0   138.2   1007                     
Winds are 10-min average.

Tropical cyclone tracks developed by Michael Bath using data from the Bureau of Meteorology and Google Maps.


[Australian Severe Weather index] [Copyright Notice] [Email Contacts] [Search This Site] [Privacy Policy]
Document: tropical_cyclone_alfred.htm Updated: 29 June 2017